Skip to main content

CRUISE INFORMATION RECORD AND DATA
 
NODC Cruise 48-1606 Information
WOD CRUISE REFERENCE # 48001606
DATA:
in WOD format 48001606_XBT.dat
48001606_CTD.dat
in 'csv' format 48001606_XBT.csv
48001606_CTD.csv
METADATA:
COUNTRY ITALY (48)
NODC ACCESSION NUMBER (XBT) 43698
SHIP NAME URANIA (Call sign IQSU)
INSTITUTE NATIONAL AGENCY FOR NEW TECHNOLOGIES; ENERGY AND THE ENVIRONMENT (ENEA)
PROJECT MFSTEP (MEDITERRANEAN FORECASTING SYSTEM: TOWARD ENVIRONMENTAL PREDICTION)
PRIMARY INVESTIGATORS  
All Parameters RESEGHETTI; FRANCO
SUBMITTING INSTITUTE NATIONAL AGENCY FOR NEW TECHNOLOGIES; ENERGY AND THE ENVIRONMENT (ENEA)
SUBMITTING INVESTIGATOR PAYNE; RICHARD
SUBMISSION DATE 7/31/2008
DATE OF FIRST CAST 10/20/2002
DATE OF LAST CAST 10/21/2002
TOTAL NUMBER OF CASTS 34
Temperature [t] PROFILES 34
Salinity [s] PROFILES 12
Pressure [w] PROFILES 12
UNIQUE CAST # LATITUDE LONGITUDE DATE TIME PROBE TYPE
11459041 42.674 8.682 10/20/2002 21.128 CTD
11459057 42.677 8.678 10/20/2002 22.231 XBT
11459058 42.714 8.644 10/20/2002 22.468 XBT
11459042 42.725 8.633 10/20/2002 22.786 CTD
11459059 42.729 8.630 10/20/2002 23.789 XBT
11459060 42.789 8.574 10/21/2002 0.239 XBT
11459043 42.797 8.567 10/21/2002 0.478 CTD
11459061 42.810 8.554 10/21/2002 1.879 XBT
11459062 42.850 8.514 10/21/2002 2.174 XBT
11459044 42.862 8.500 10/21/2002 2.564 CTD
11459063 42.865 8.495 10/21/2002 4.027 XBT
11459064 43.005 8.377 10/21/2002 4.987 XBT
11459045 43.016 8.366 10/21/2002 5.311 CTD
11459065 43.023 8.361 10/21/2002 6.728 XBT
11459066 43.132 8.251 10/21/2002 7.537 XBT
11459046 43.151 8.233 10/21/2002 8.031 CTD
11459067 43.164 8.223 10/21/2002 9.614 XBT
11459068 43.278 8.111 10/21/2002 10.329 XBT
11459047 43.290 8.100 10/21/2002 10.570 CTD
11459069 43.305 8.087 10/21/2002 12.296 XBT
11459070 43.412 7.979 10/21/2002 12.999 XBT
11459048 43.425 7.967 10/21/2002 13.260 CTD
11459071 43.430 7.965 10/21/2002 15.577 XBT
11459072 43.480 7.912 10/21/2002 15.953 XBT
11459049 43.488 7.900 10/21/2002 16.151 CTD
11459073 43.492 7.897 10/21/2002 17.368 XBT
11459074 43.546 7.843 10/21/2002 17.804 XBT
11459050 43.555 7.835 10/21/2002 18.097 CTD
11459075 43.562 7.829 10/21/2002 19.355 XBT
11459076 43.606 7.790 10/21/2002 19.809 XBT
11459051 43.620 7.783 10/21/2002 20.141 CTD
11459077 43.625 7.778 10/21/2002 21.188 XBT
11459078 43.671 7.736 10/21/2002 21.505 XBT
11459052 43.692 7.716 10/21/2002 23.919 CTD